sensor_id;sensor_type;location;lat;lon;timestamp;pressure;altitude;pressure_sealevel;temperature;humidity
42519;BME280;28147;47.520;18.920;2023-02-15T00:58:46;100058.63;;;3.22;66.75
42519;BME280;28147;47.520;18.920;2023-02-15T01:05:05;100058.44;;;3.33;66.39
42519;BME280;28147;47.520;18.920;2023-02-15T01:57:03;100031.25;;;3.14;66.56
42519;BME280;28147;47.520;18.920;2023-02-15T01:59:55;100029.22;;;2.99;66.73
42519;BME280;28147;47.520;18.920;2023-02-15T02:03:09;100026.63;;;3.26;66.35
42519;BME280;28147;47.520;18.920;2023-02-15T02:05:35;100022.31;;;3.25;66.41
42519;BME280;28147;47.520;18.920;2023-02-15T03:15:20;100022.34;;;2.88;67.46
42519;BME280;28147;47.520;18.920;2023-02-15T03:27:35;100019.84;;;2.96;67.34
42519;BME280;28147;47.520;18.920;2023-02-15T03:30:02;100018.50;;;2.73;67.95
42519;BME280;28147;47.520;18.920;2023-02-15T03:38:09;100027.53;;;2.70;67.76
42519;BME280;28147;47.520;18.920;2023-02-15T03:41:34;100019.47;;;2.72;67.91
42519;BME280;28147;47.520;18.920;2023-02-15T04:11:18;100027.09;;;2.75;67.67
42519;BME280;28147;47.520;18.920;2023-02-15T04:13:44;100032.25;;;2.57;67.95
42519;BME280;28147;47.520;18.920;2023-02-15T04:16:09;100026.72;;;2.60;67.81
42519;BME280;28147;47.520;18.920;2023-02-15T04:18:39;100034.47;;;2.61;67.92
42519;BME280;28147;47.520;18.920;2023-02-15T04:25:28;100022.00;;;2.54;68.21
42519;BME280;28147;47.520;18.920;2023-02-15T04:33:08;100020.91;;;2.56;68.34
42519;BME280;28147;47.520;18.920;2023-02-15T04:35:33;100026.72;;;2.60;67.86
42519;BME280;28147;47.520;18.920;2023-02-15T04:37:59;100029.53;;;2.39;68.66
42519;BME280;28147;47.520;18.920;2023-02-15T04:43:09;100032.41;;;2.46;68.37
42519;BME280;28147;47.520;18.920;2023-02-15T04:45:34;100029.22;;;2.61;67.80
42519;BME280;28147;47.520;18.920;2023-02-15T04:55:22;100032.53;;;2.54;67.66
42519;BME280;28147;47.520;18.920;2023-02-15T06:07:08;100068.25;;;2.47;67.66
42519;BME280;28147;47.520;18.920;2023-02-15T06:22:59;100071.13;;;2.63;67.58
42519;BME280;28147;47.520;18.920;2023-02-15T06:25:24;100081.75;;;2.81;67.26
42519;BME280;28147;47.520;18.920;2023-02-15T06:28:09;100077.44;;;2.89;66.89
42519;BME280;28147;47.520;18.920;2023-02-15T06:32:12;100080.69;;;3.11;66.05
42519;BME280;28147;47.520;18.920;2023-02-15T06:38:25;100076.03;;;3.32;66.03
42519;BME280;28147;47.520;18.920;2023-02-15T06:40:51;100077.34;;;3.46;65.86
42519;BME280;28147;47.520;18.920;2023-02-15T06:43:16;100083.25;;;3.30;66.34
42519;BME280;28147;47.520;18.920;2023-02-15T06:45:42;100086.28;;;3.35;66.21
42519;BME280;28147;47.520;18.920;2023-02-15T06:48:07;100082.13;;;3.33;66.37
42519;BME280;28147;47.520;18.920;2023-02-15T06:56:38;100089.53;;;3.75;65.81
42519;BME280;28147;47.520;18.920;2023-02-15T06:59:04;100090.78;;;3.71;66.02
42519;BME280;28147;47.520;18.920;2023-02-15T07:13:18;100080.13;;;4.61;65.49
42519;BME280;28147;47.520;18.920;2023-02-15T07:19:37;100068.25;;;4.83;65.43
42519;BME280;28147;47.520;18.920;2023-02-15T07:25:13;100084.88;;;5.36;64.79
42519;BME280;28147;47.520;18.920;2023-02-15T07:32:17;100077.63;;;5.89;63.20
42519;BME280;28147;47.520;18.920;2023-02-15T07:34:43;100081.41;;;5.35;64.63
42519;BME280;28147;47.520;18.920;2023-02-15T07:39:30;100075.25;;;5.61;63.95
42519;BME280;28147;47.520;18.920;2023-02-15T07:43:25;100074.75;;;5.66;63.23
42519;BME280;28147;47.520;18.920;2023-02-15T07:45:50;100072.13;;;5.74;63.08
42519;BME280;28147;47.520;18.920;2023-02-15T08:00:58;100062.34;;;6.66;62.77
42519;BME280;28147;47.520;18.920;2023-02-15T08:03:27;100070.75;;;6.94;62.89
42519;BME280;28147;47.520;18.920;2023-02-15T08:08:33;100070.31;;;7.29;61.43
42519;BME280;28147;47.520;18.920;2023-02-15T08:11:05;100072.03;;;7.06;59.41
42519;BME280;28147;47.520;18.920;2023-02-15T08:13:53;100068.53;;;7.14;58.98
42519;BME280;28147;47.520;18.920;2023-02-15T08:16:29;100064.97;;;7.38;58.60
42519;BME280;28147;47.520;18.920;2023-02-15T08:18:56;100064.50;;;7.34;57.88
42519;BME280;28147;47.520;18.920;2023-02-15T08:21:24;100066.31;;;8.04;57.35
42519;BME280;28147;47.520;18.920;2023-02-15T08:23:50;100063.06;;;8.17;57.51
42519;BME280;28147;47.520;18.920;2023-02-15T08:26:16;100046.75;;;8.66;55.81
42519;BME280;28147;47.520;18.920;2023-02-15T08:28:42;100049.53;;;8.72;55.47
42519;BME280;28147;47.520;18.920;2023-02-15T08:31:12;100061.16;;;8.71;54.72
42519;BME280;28147;47.520;18.920;2023-02-15T08:33:39;100052.94;;;9.40;54.21
42519;BME280;28147;47.520;18.920;2023-02-15T08:36:07;100058.47;;;9.09;53.07
42519;BME280;28147;47.520;18.920;2023-02-15T08:38:33;100057.25;;;9.12;53.45
42519;BME280;28147;47.520;18.920;2023-02-15T08:41:30;100051.44;;;8.64;53.69
42519;BME280;28147;47.520;18.920;2023-02-15T08:43:59;100055.97;;;9.37;53.35
42519;BME280;28147;47.520;18.920;2023-02-15T08:46:26;100054.94;;;8.79;55.23
42519;BME280;28147;47.520;18.920;2023-02-15T08:48:52;100052.72;;;8.68;54.81
42519;BME280;28147;47.520;18.920;2023-02-15T08:51:20;100045.72;;;8.52;55.32
42519;BME280;28147;47.520;18.920;2023-02-15T08:53:48;100061.28;;;9.37;53.95
42519;BME280;28147;47.520;18.920;2023-02-15T08:56:18;100051.84;;;9.05;53.38
42519;BME280;28147;47.520;18.920;2023-02-15T08:58:44;100046.97;;;9.38;52.71
42519;BME280;28147;47.520;18.920;2023-02-15T09:01:17;100049.44;;;8.81;53.59
42519;BME280;28147;47.520;18.920;2023-02-15T09:03:44;100049.19;;;9.35;53.24
42519;BME280;28147;47.520;18.920;2023-02-15T09:06:11;100050.47;;;9.90;52.08
42519;BME280;28147;47.520;18.920;2023-02-15T09:08:36;100037.34;;;9.88;52.84
42519;BME280;28147;47.520;18.920;2023-02-15T09:11:11;100054.84;;;9.46;52.52
42519;BME280;28147;47.520;18.920;2023-02-15T09:13:37;100055.34;;;8.30;55.36
42519;BME280;28147;47.520;18.920;2023-02-15T09:16:06;100055.94;;;8.78;54.16
42519;BME280;28147;47.520;18.920;2023-02-15T09:18:33;100054.69;;;9.33;53.13
42519;BME280;28147;47.520;18.920;2023-02-15T09:21:08;100048.69;;;10.18;50.80
42519;BME280;28147;47.520;18.920;2023-02-15T09:23:34;100059.19;;;9.03;52.80
42519;BME280;28147;47.520;18.920;2023-02-15T09:26:05;100053.81;;;9.98;51.98
42519;BME280;28147;47.520;18.920;2023-02-15T09:28:31;100057.97;;;9.50;52.35
42519;BME280;28147;47.520;18.920;2023-02-15T09:31:13;100057.00;;;9.72;51.23
42519;BME280;28147;47.520;18.920;2023-02-15T09:33:41;100051.84;;;10.07;50.46
42519;BME280;28147;47.520;18.920;2023-02-15T09:36:31;100052.34;;;9.74;51.12
42519;BME280;28147;47.520;18.920;2023-02-15T09:41:54;100054.50;;;10.43;48.97
42519;BME280;28147;47.520;18.920;2023-02-15T09:56:06;100032.94;;;10.17;49.46
42519;BME280;28147;47.520;18.920;2023-02-15T10:09:40;100026.19;;;10.92;46.54
42519;BME280;28147;47.520;18.920;2023-02-15T10:15:38;100030.69;;;10.91;47.00
42519;BME280;28147;47.520;18.920;2023-02-15T10:26:54;100028.41;;;11.78;45.18
42519;BME280;28147;47.520;18.920;2023-02-15T10:29:33;100018.25;;;11.05;46.29
42519;BME280;28147;47.520;18.920;2023-02-15T10:32:22;100022.63;;;11.67;45.74
42519;BME280;28147;47.520;18.920;2023-02-15T10:34:54;100013.25;;;10.89;45.92
42519;BME280;28147;47.520;18.920;2023-02-15T10:37:42;100023.31;;;11.35;45.11
42519;BME280;28147;47.520;18.920;2023-02-15T10:40:33;100025.06;;;10.52;47.43
42519;BME280;28147;47.520;18.920;2023-02-15T10:46:11;100017.94;;;10.59;46.35
42519;BME280;28147;47.520;18.920;2023-02-15T10:52:14;100016.16;;;10.66;46.45
42519;BME280;28147;47.520;18.920;2023-02-15T10:57:13;100001.31;;;10.29;48.06
42519;BME280;28147;47.520;18.920;2023-02-15T11:03:25;99991.75;;;10.62;47.13
42519;BME280;28147;47.520;18.920;2023-02-15T11:08:24;99980.69;;;11.41;45.56
42519;BME280;28147;47.520;18.920;2023-02-15T11:10:58;99982.31;;;12.10;44.56
42519;BME280;28147;47.520;18.920;2023-02-15T11:13:29;99978.19;;;11.27;46.00
42519;BME280;28147;47.520;18.920;2023-02-15T11:18:36;99980.44;;;10.88;46.64
42519;BME280;28147;47.520;18.920;2023-02-15T11:21:17;99963.84;;;11.34;46.06
42519;BME280;28147;47.520;18.920;2023-02-15T11:23:46;99967.59;;;11.53;45.27
42519;BME280;28147;47.520;18.920;2023-02-15T11:29:25;99968.63;;;11.52;45.93
42519;BME280;28147;47.520;18.920;2023-02-15T11:32:26;99960.41;;;10.58;48.08
42519;BME280;28147;47.520;18.920;2023-02-15T11:35:03;99956.91;;;11.47;46.71
42519;BME280;28147;47.520;18.920;2023-02-15T11:37:40;99951.50;;;12.21;44.50
42519;BME280;28147;47.520;18.920;2023-02-15T11:40:23;99948.56;;;12.76;44.09
42519;BME280;28147;47.520;18.920;2023-02-15T11:42:51;99937.03;;;12.88;43.95
42519;BME280;28147;47.520;18.920;2023-02-15T11:45:26;99942.25;;;12.04;44.81
42519;BME280;28147;47.520;18.920;2023-02-15T11:47:53;99942.06;;;11.17;45.94
42519;BME280;28147;47.520;18.920;2023-02-15T11:50:25;99933.91;;;10.84;47.16
42519;BME280;28147;47.520;18.920;2023-02-15T11:52:52;99940.97;;;11.73;45.53
42519;BME280;28147;47.520;18.920;2023-02-15T11:55:22;99936.81;;;11.51;46.00
42519;BME280;28147;47.520;18.920;2023-02-15T11:57:54;99923.19;;;11.19;46.81
42519;BME280;28147;47.520;18.920;2023-02-15T12:03:03;99932.41;;;10.75;47.23
42519;BME280;28147;47.520;18.920;2023-02-15T12:05:34;99927.88;;;10.69;45.83
42519;BME280;28147;47.520;18.920;2023-02-15T12:08:05;99922.00;;;11.35;45.75
42519;BME280;28147;47.520;18.920;2023-02-15T12:10:50;99927.75;;;11.25;46.25
42519;BME280;28147;47.520;18.920;2023-02-15T12:13:20;99925.69;;;11.27;45.50
42519;BME280;28147;47.520;18.920;2023-02-15T12:15:50;99919.88;;;11.17;46.24
42519;BME280;28147;47.520;18.920;2023-02-15T12:18:41;99917.66;;;11.14;46.10
42519;BME280;28147;47.520;18.920;2023-02-15T12:21:30;99916.81;;;10.65;46.82
42519;BME280;28147;47.520;18.920;2023-02-15T12:24:14;99916.91;;;10.85;46.64
42519;BME280;28147;47.520;18.920;2023-02-15T12:28:19;99905.03;;;10.94;46.22
42519;BME280;28147;47.520;18.920;2023-02-15T12:30:48;99905.22;;;10.86;46.06
42519;BME280;28147;47.520;18.920;2023-02-15T12:33:39;99901.94;;;10.21;46.43
42519;BME280;28147;47.520;18.920;2023-02-15T12:38:33;99892.69;;;10.39;46.13
42519;BME280;28147;47.520;18.920;2023-02-15T12:43:34;99896.81;;;9.92;48.91
42519;BME280;28147;47.520;18.920;2023-02-15T12:49:28;99881.19;;;10.73;47.34
42519;BME280;28147;47.520;18.920;2023-02-15T12:51:55;99880.63;;;10.91;46.72
42519;BME280;28147;47.520;18.920;2023-02-15T12:54:36;99879.09;;;10.62;47.60
42519;BME280;28147;47.520;18.920;2023-02-15T12:57:31;99874.63;;;10.76;47.80
42519;BME280;28147;47.520;18.920;2023-02-15T13:00:12;99872.03;;;10.47;47.65
42519;BME280;28147;47.520;18.920;2023-02-15T13:02:51;99871.19;;;10.82;46.74
42519;BME280;28147;47.520;18.920;2023-02-15T13:05:38;99867.94;;;9.89;49.68
42519;BME280;28147;47.520;18.920;2023-02-15T13:10:51;99856.22;;;10.39;48.00
42519;BME280;28147;47.520;18.920;2023-02-15T13:13:20;99861.41;;;10.47;48.44
42519;BME280;28147;47.520;18.920;2023-02-15T13:15:50;99863.53;;;10.03;48.93
42519;BME280;28147;47.520;18.920;2023-02-15T13:18:19;99856.47;;;9.88;49.52
42519;BME280;28147;47.520;18.920;2023-02-15T13:20:49;99853.09;;;10.01;49.77
42519;BME280;28147;47.520;18.920;2023-02-15T13:23:29;99848.63;;;9.80;50.04
42519;BME280;28147;47.520;18.920;2023-02-15T13:25:59;99852.44;;;9.71;50.35
42519;BME280;28147;47.520;18.920;2023-02-15T13:28:47;99849.66;;;10.35;48.49
42519;BME280;28147;47.520;18.920;2023-02-15T13:31:23;99847.81;;;10.08;49.40
42519;BME280;28147;47.520;18.920;2023-02-15T13:34:01;99846.09;;;9.93;49.67
42519;BME280;28147;47.520;18.920;2023-02-15T13:39:55;99841.28;;;10.10;48.81
42519;BME280;28147;47.520;18.920;2023-02-15T13:42:59;99838.81;;;10.09;49.18
42519;BME280;28147;47.520;18.920;2023-02-15T13:45:44;99840.34;;;10.24;48.85
42519;BME280;28147;47.520;18.920;2023-02-15T13:48:37;99838.19;;;10.07;48.32
42519;BME280;28147;47.520;18.920;2023-02-15T13:56:44;99838.22;;;9.57;49.45
42519;BME280;28147;47.520;18.920;2023-02-15T14:07:56;99837.72;;;9.96;49.18
42519;BME280;28147;47.520;18.920;2023-02-15T14:13:35;99838.44;;;9.84;49.35
42519;BME280;28147;47.520;18.920;2023-02-15T14:19:39;99835.09;;;9.75;49.12
42519;BME280;28147;47.520;18.920;2023-02-15T14:27:52;99834.72;;;9.35;50.44
42519;BME280;28147;47.520;18.920;2023-02-15T14:30:20;99844.84;;;9.68;49.84
42519;BME280;28147;47.520;18.920;2023-02-15T14:32:50;99838.41;;;9.34;50.37
42519;BME280;28147;47.520;18.920;2023-02-15T14:35:19;99836.34;;;9.51;50.57
42519;BME280;28147;47.520;18.920;2023-02-15T14:49:15;99819.31;;;9.45;51.27
42519;BME280;28147;47.520;18.920;2023-02-15T14:56:46;99820.97;;;9.25;51.74
42519;BME280;28147;47.520;18.920;2023-02-15T14:59:13;99819.13;;;9.25;51.57
42519;BME280;28147;47.520;18.920;2023-02-15T15:01:40;99826.06;;;9.26;51.81
42519;BME280;28147;47.520;18.920;2023-02-15T15:04:33;99814.47;;;9.13;51.91
42519;BME280;28147;47.520;18.920;2023-02-15T15:09:41;99808.31;;;9.06;51.70
42519;BME280;28147;47.520;18.920;2023-02-15T15:14:53;99806.53;;;9.34;51.48
42519;BME280;28147;47.520;18.920;2023-02-15T15:20:12;99818.50;;;8.51;53.44
42519;BME280;28147;47.520;18.920;2023-02-15T15:22:40;99808.53;;;8.53;54.03
42519;BME280;28147;47.520;18.920;2023-02-15T15:28:02;99797.00;;;8.46;54.25
42519;BME280;28147;47.520;18.920;2023-02-15T15:36:01;99806.06;;;8.88;53.15
42519;BME280;28147;47.520;18.920;2023-02-15T15:41:19;99811.72;;;8.99;53.01
42519;BME280;28147;47.520;18.920;2023-02-15T15:50:14;99816.78;;;8.94;52.87
42519;BME280;28147;47.520;18.920;2023-02-15T15:52:49;99806.66;;;8.68;53.51
42519;BME280;28147;47.520;18.920;2023-02-15T16:03:01;99801.94;;;8.64;54.10
42519;BME280;28147;47.520;18.920;2023-02-15T16:05:27;99800.09;;;8.49;54.29
42519;BME280;28147;47.520;18.920;2023-02-15T16:07:59;99792.41;;;8.10;55.17
42519;BME280;28147;47.520;18.920;2023-02-15T16:10:26;99799.63;;;8.31;54.99
42519;BME280;28147;47.520;18.920;2023-02-15T16:13:54;99798.16;;;8.14;55.10
42519;BME280;28147;47.520;18.920;2023-02-15T16:16:29;99801.56;;;8.08;55.59
42519;BME280;28147;47.520;18.920;2023-02-15T16:19:46;99803.28;;;8.00;55.58
42519;BME280;28147;47.520;18.920;2023-02-15T16:47:49;99808.00;;;7.15;58.21
42519;BME280;28147;47.520;18.920;2023-02-15T16:52:26;99809.50;;;6.94;58.62
42519;BME280;28147;47.520;18.920;2023-02-15T16:58:01;99814.13;;;6.92;58.41
42519;BME280;28147;47.520;18.920;2023-02-15T17:00:32;99815.53;;;6.80;58.40
42519;BME280;28147;47.520;18.920;2023-02-15T17:17:13;99834.09;;;6.72;59.02
42519;BME280;28147;47.520;18.920;2023-02-15T17:22:25;99816.34;;;6.49;58.58
42519;BME280;28147;47.520;18.920;2023-02-15T17:25:00;99824.13;;;6.43;59.04
42519;BME280;28147;47.520;18.920;2023-02-15T17:39:25;99808.03;;;6.13;59.98
42519;BME280;28147;47.520;18.920;2023-02-15T17:59:39;99803.78;;;5.88;60.40
42519;BME280;28147;47.520;18.920;2023-02-15T18:02:12;99820.47;;;5.96;60.35
42519;BME280;28147;47.520;18.920;2023-02-15T18:04:46;99807.09;;;5.81;60.87
42519;BME280;28147;47.520;18.920;2023-02-15T18:07:22;99807.94;;;5.74;60.48
42519;BME280;28147;47.520;18.920;2023-02-15T18:09:56;99808.59;;;5.59;61.23
42519;BME280;28147;47.520;18.920;2023-02-15T18:13:55;99805.81;;;5.36;61.73
42519;BME280;28147;47.520;18.920;2023-02-15T18:16:27;99793.44;;;5.53;60.86
42519;BME280;28147;47.520;18.920;2023-02-15T18:22:44;99808.44;;;5.45;61.29
42519;BME280;28147;47.520;18.920;2023-02-15T18:26:20;99800.03;;;5.33;61.74
42519;BME280;28147;47.520;18.920;2023-02-15T18:33:28;99787.16;;;5.05;62.50
42519;BME280;28147;47.520;18.920;2023-02-15T18:36:31;99798.06;;;5.27;61.80
42519;BME280;28147;47.520;18.920;2023-02-15T18:38:58;99806.47;;;5.30;62.04
42519;BME280;28147;47.520;18.920;2023-02-15T18:45:49;99799.03;;;5.18;62.55
42519;BME280;28147;47.520;18.920;2023-02-15T18:53:27;99796.06;;;5.12;62.48
42519;BME280;28147;47.520;18.920;2023-02-15T18:55:52;99795.38;;;5.19;62.09
42519;BME280;28147;47.520;18.920;2023-02-15T18:58:21;99794.09;;;5.23;62.37
42519;BME280;28147;47.520;18.920;2023-02-15T19:00:48;99795.06;;;5.22;62.71
42519;BME280;28147;47.520;18.920;2023-02-15T19:03:16;99800.97;;;5.07;63.07
42519;BME280;28147;47.520;18.920;2023-02-15T19:05:44;99799.03;;;5.26;62.66
42519;BME280;28147;47.520;18.920;2023-02-15T19:08:21;99795.06;;;5.22;62.89
42519;BME280;28147;47.520;18.920;2023-02-15T19:10:50;99792.78;;;5.27;62.14
42519;BME280;28147;47.520;18.920;2023-02-15T19:13:16;99800.34;;;5.30;62.55
42519;BME280;28147;47.520;18.920;2023-02-15T19:15:42;99791.78;;;5.20;62.95
42519;BME280;28147;47.520;18.920;2023-02-15T19:18:08;99799.03;;;5.26;62.85
42519;BME280;28147;47.520;18.920;2023-02-15T20:15:33;99786.22;;;4.56;64.51
42519;BME280;28147;47.520;18.920;2023-02-15T20:18:02;99783.91;;;4.53;63.95
42519;BME280;28147;47.520;18.920;2023-02-15T20:20:51;99783.78;;;4.71;63.84
42519;BME280;28147;47.520;18.920;2023-02-15T20:24:02;99779.31;;;4.55;63.87
42519;BME280;28147;47.520;18.920;2023-02-15T20:26:28;99789.19;;;4.53;65.16
42519;BME280;28147;47.520;18.920;2023-02-15T20:28:55;99778.50;;;4.62;64.65
42519;BME280;28147;47.520;18.920;2023-02-15T20:31:21;99776.19;;;4.68;64.70
42519;BME280;28147;47.520;18.920;2023-02-15T20:33:47;99785.09;;;4.58;65.48
42519;BME280;28147;47.520;18.920;2023-02-15T20:36:36;99772.41;;;4.70;65.29
42519;BME280;28147;47.520;18.920;2023-02-15T20:39:15;99778.19;;;4.74;64.53
42519;BME280;28147;47.520;18.920;2023-02-15T20:41:41;99778.34;;;4.80;63.77
42519;BME280;28147;47.520;18.920;2023-02-15T20:46:54;99766.25;;;4.53;64.02
42519;BME280;28147;47.520;18.920;2023-02-15T20:49:22;99768.19;;;4.43;64.37
42519;BME280;28147;47.520;18.920;2023-02-15T20:51:52;99775.16;;;4.44;64.67
42519;BME280;28147;47.520;18.920;2023-02-15T20:54:20;99774.16;;;4.45;64.92
42519;BME280;28147;47.520;18.920;2023-02-15T20:56:47;99781.03;;;4.30;65.09
42519;BME280;28147;47.520;18.920;2023-02-15T21:02:33;99774.03;;;4.12;66.35
42519;BME280;28147;47.520;18.920;2023-02-15T21:04:59;99777.41;;;4.31;65.68
42519;BME280;28147;47.520;18.920;2023-02-15T21:07:25;99765.03;;;4.31;65.61
42519;BME280;28147;47.520;18.920;2023-02-15T21:09:51;99763.59;;;4.45;65.75
42519;BME280;28147;47.520;18.920;2023-02-15T21:12:18;99766.19;;;4.29;65.63
42519;BME280;28147;47.520;18.920;2023-02-15T21:14:45;99768.47;;;4.24;65.39
42519;BME280;28147;47.520;18.920;2023-02-15T21:17:13;99773.44;;;4.35;65.50
42519;BME280;28147;47.520;18.920;2023-02-15T21:19:39;99758.63;;;4.34;65.28
42519;BME280;28147;47.520;18.920;2023-02-15T21:22:04;99774.75;;;4.31;65.74
42519;BME280;28147;47.520;18.920;2023-02-15T21:29:18;99771.63;;;4.35;65.33
42519;BME280;28147;47.520;18.920;2023-02-15T21:31:45;99769.22;;;4.08;65.82
42519;BME280;28147;47.520;18.920;2023-02-15T21:34:11;99763.09;;;3.99;66.38
42519;BME280;28147;47.520;18.920;2023-02-15T21:38:41;99765.47;;;4.10;66.28
42519;BME280;28147;47.520;18.920;2023-02-15T21:41:14;99761.31;;;4.08;67.22
42519;BME280;28147;47.520;18.920;2023-02-15T21:45:12;99770.44;;;4.22;66.72
42519;BME280;28147;47.520;18.920;2023-02-15T21:47:59;99768.84;;;4.29;65.88
42519;BME280;28147;47.520;18.920;2023-02-15T21:50:24;99769.78;;;4.20;65.69
42519;BME280;28147;47.520;18.920;2023-02-15T21:53:01;99764.19;;;4.23;65.62
42519;BME280;28147;47.520;18.920;2023-02-15T21:58:03;99760.91;;;3.86;66.66
42519;BME280;28147;47.520;18.920;2023-02-15T22:00:30;99760.69;;;4.14;65.71
42519;BME280;28147;47.520;18.920;2023-02-15T22:02:57;99762.97;;;4.09;65.68
42519;BME280;28147;47.520;18.920;2023-02-15T22:05:30;99762.81;;;4.10;66.00
42519;BME280;28147;47.520;18.920;2023-02-15T22:07:56;99755.66;;;3.86;66.32
42519;BME280;28147;47.520;18.920;2023-02-15T22:10:27;99757.16;;;3.71;67.30
42519;BME280;28147;47.520;18.920;2023-02-15T22:14:00;99761.09;;;3.93;66.50
42519;BME280;28147;47.520;18.920;2023-02-15T22:16:26;99759.47;;;4.00;66.35
42519;BME280;28147;47.520;18.920;2023-02-15T22:18:51;99760.00;;;4.04;66.31
42519;BME280;28147;47.520;18.920;2023-02-15T22:21:17;99764.09;;;3.98;66.19
42519;BME280;28147;47.520;18.920;2023-02-15T22:23:43;99760.47;;;3.99;66.19
42519;BME280;28147;47.520;18.920;2023-02-15T22:28:47;99757.84;;;3.99;66.25
42519;BME280;28147;47.520;18.920;2023-02-15T22:31:15;99754.13;;;3.84;66.83
42519;BME280;28147;47.520;18.920;2023-02-15T22:34:26;99766.00;;;3.88;66.65
42519;BME280;28147;47.520;18.920;2023-02-15T22:39:51;99772.72;;;3.82;66.80
42519;BME280;28147;47.520;18.920;2023-02-15T22:44:31;99767.25;;;4.02;65.99
42519;BME280;28147;47.520;18.920;2023-02-15T22:46:58;99765.28;;;3.78;66.70
42519;BME280;28147;47.520;18.920;2023-02-15T22:49:24;99765.00;;;3.89;66.20
42519;BME280;28147;47.520;18.920;2023-02-15T22:51:50;99764.09;;;3.98;65.90
42519;BME280;28147;47.520;18.920;2023-02-15T22:54:16;99766.34;;;3.93;65.88
42519;BME280;28147;47.520;18.920;2023-02-15T22:56:43;99765.19;;;3.87;66.39
42519;BME280;28147;47.520;18.920;2023-02-15T22:59:29;99764.03;;;3.90;66.17
42519;BME280;28147;47.520;18.920;2023-02-15T23:02:53;99763.34;;;3.80;66.79
42519;BME280;28147;47.520;18.920;2023-02-15T23:05:20;99759.13;;;3.95;66.21
42519;BME280;28147;47.520;18.920;2023-02-15T23:07:55;99765.28;;;3.78;66.94
42519;BME280;28147;47.520;18.920;2023-02-15T23:10:22;99759.63;;;3.64;67.50
42519;BME280;28147;47.520;18.920;2023-02-15T23:23:36;99754.16;;;3.58;67.32
42519;BME280;28147;47.520;18.920;2023-02-15T23:26:03;99754.06;;;3.68;67.13
42519;BME280;28147;47.520;18.920;2023-02-15T23:31:19;99757.13;;;3.63;68.59
42519;BME280;28147;47.520;18.920;2023-02-15T23:33:46;99744.38;;;3.50;69.43
42519;BME280;28147;47.520;18.920;2023-02-15T23:38:11;99752.69;;;3.63;68.37
42519;BME280;28147;47.520;18.920;2023-02-15T23:43:36;99749.19;;;3.55;68.66
42519;BME280;28147;47.520;18.920;2023-02-15T23:46:04;99739.16;;;3.58;68.25
42519;BME280;28147;47.520;18.920;2023-02-15T23:51:05;99729.31;;;3.60;67.54
42519;BME280;28147;47.520;18.920;2023-02-15T23:53:31;99735.75;;;3.66;67.93
42519;BME280;28147;47.520;18.920;2023-02-15T23:55:57;99738.56;;;3.64;68.07
42519;BME280;28147;47.520;18.920;2023-02-15T23:58:59;99731.31;;;3.66;68.11
